sensor_id;sensor_type;location;lat;lon;timestamp;P1;durP1;ratioP1;P2;durP2;ratioP2
52564;SDS011;38460;53.106;7.004;2023-01-19T00:01:32;12.30;;;9.18;;
52564;SDS011;38460;53.106;7.004;2023-01-19T00:03:58;12.25;;;8.55;;
52564;SDS011;38460;53.106;7.004;2023-01-19T00:06:24;11.88;;;8.95;;
52564;SDS011;38460;53.106;7.004;2023-01-19T00:08:49;10.50;;;9.40;;
52564;SDS011;38460;53.106;7.004;2023-01-19T00:11:15;11.25;;;9.43;;
52564;SDS011;38460;53.106;7.004;2023-01-19T00:13:44;13.02;;;9.45;;
52564;SDS011;38460;53.106;7.004;2023-01-19T00:16:14;11.30;;;8.18;;
52564;SDS011;38460;53.106;7.004;2023-01-19T00:18:44;13.65;;;8.70;;
52564;SDS011;38460;53.106;7.004;2023-01-19T00:21:10;12.63;;;7.72;;
52564;SDS011;38460;53.106;7.004;2023-01-19T00:23:36;10.85;;;8.15;;
52564;SDS011;38460;53.106;7.004;2023-01-19T00:26:02;14.65;;;9.10;;
52564;SDS011;38460;53.106;7.004;2023-01-19T00:28:27;11.23;;;7.78;;
52564;SDS011;38460;53.106;7.004;2023-01-19T00:30:53;11.27;;;7.57;;
52564;SDS011;38460;53.106;7.004;2023-01-19T00:33:19;10.13;;;7.53;;
52564;SDS011;38460;53.106;7.004;2023-01-19T00:35:49;10.80;;;7.47;;
52564;SDS011;38460;53.106;7.004;2023-01-19T00:38:15;10.75;;;8.05;;
52564;SDS011;38460;53.106;7.004;2023-01-19T00:40:41;10.90;;;7.65;;
52564;SDS011;38460;53.106;7.004;2023-01-19T00:43:07;10.63;;;7.82;;
52564;SDS011;38460;53.106;7.004;2023-01-19T00:45:33;9.32;;;7.57;;
52564;SDS011;38460;53.106;7.004;2023-01-19T00:47:59;9.85;;;7.70;;
52564;SDS011;38460;53.106;7.004;2023-01-19T00:50:25;9.20;;;6.90;;
52564;SDS011;38460;53.106;7.004;2023-01-19T00:52:53;9.23;;;6.55;;
52564;SDS011;38460;53.106;7.004;2023-01-19T00:55:20;7.82;;;5.68;;
52564;SDS011;38460;53.106;7.004;2023-01-19T00:57:46;8.20;;;5.60;;
52564;SDS011;38460;53.106;7.004;2023-01-19T01:00:14;7.88;;;5.80;;
52564;SDS011;38460;53.106;7.004;2023-01-19T01:02:41;9.82;;;5.97;;
52564;SDS011;38460;53.106;7.004;2023-01-19T01:05:08;9.07;;;6.10;;
52564;SDS011;38460;53.106;7.004;2023-01-19T01:07:34;8.10;;;5.68;;
52564;SDS011;38460;53.106;7.004;2023-01-19T01:10:19;6.78;;;5.88;;
52564;SDS011;38460;53.106;7.004;2023-01-19T01:12:46;7.45;;;5.22;;
52564;SDS011;38460;53.106;7.004;2023-01-19T01:15:12;6.68;;;5.28;;
52564;SDS011;38460;53.106;7.004;2023-01-19T01:17:40;8.43;;;5.53;;
52564;SDS011;38460;53.106;7.004;2023-01-19T01:20:32;7.70;;;4.30;;
52564;SDS011;38460;53.106;7.004;2023-01-19T01:22:58;4.72;;;4.00;;
52564;SDS011;38460;53.106;7.004;2023-01-19T01:25:25;4.72;;;3.92;;
52564;SDS011;38460;53.106;7.004;2023-01-19T01:27:52;4.90;;;3.90;;
52564;SDS011;38460;53.106;7.004;2023-01-19T01:30:19;4.78;;;3.45;;
52564;SDS011;38460;53.106;7.004;2023-01-19T01:32:45;4.78;;;3.95;;
52564;SDS011;38460;53.106;7.004;2023-01-19T01:35:11;3.58;;;2.95;;
52564;SDS011;38460;53.106;7.004;2023-01-19T01:37:37;4.47;;;3.20;;
52564;SDS011;38460;53.106;7.004;2023-01-19T01:40:03;5.32;;;3.53;;
52564;SDS011;38460;53.106;7.004;2023-01-19T01:42:30;6.05;;;3.78;;
52564;SDS011;38460;53.106;7.004;2023-01-19T01:44:58;5.28;;;3.80;;
52564;SDS011;38460;53.106;7.004;2023-01-19T01:50:02;4.45;;;3.28;;
52564;SDS011;38460;53.106;7.004;2023-01-19T01:52:51;5.10;;;3.88;;
52564;SDS011;38460;53.106;7.004;2023-01-19T01:55:19;4.65;;;3.20;;
52564;SDS011;38460;53.106;7.004;2023-01-19T01:57:47;5.03;;;3.22;;
52564;SDS011;38460;53.106;7.004;2023-01-19T02:00:16;6.05;;;3.78;;
52564;SDS011;38460;53.106;7.004;2023-01-19T02:02:42;4.70;;;3.30;;
52564;SDS011;38460;53.106;7.004;2023-01-19T02:05:25;4.97;;;3.35;;
52564;SDS011;38460;53.106;7.004;2023-01-19T02:10:48;6.35;;;3.97;;
52564;SDS011;38460;53.106;7.004;2023-01-19T02:13:33;5.00;;;3.90;;
52564;SDS011;38460;53.106;7.004;2023-01-19T02:16:02;7.00;;;4.40;;
52564;SDS011;38460;53.106;7.004;2023-01-19T02:18:32;6.15;;;4.25;;
52564;SDS011;38460;53.106;7.004;2023-01-19T02:23:46;5.07;;;4.38;;
52564;SDS011;38460;53.106;7.004;2023-01-19T02:26:14;7.88;;;5.68;;
52564;SDS011;38460;53.106;7.004;2023-01-19T02:28:44;7.03;;;5.47;;
52564;SDS011;38460;53.106;7.004;2023-01-19T02:31:14;7.30;;;5.55;;
52564;SDS011;38460;53.106;7.004;2023-01-19T02:33:40;8.25;;;6.30;;
52564;SDS011;38460;53.106;7.004;2023-01-19T02:36:06;8.23;;;7.18;;
52564;SDS011;38460;53.106;7.004;2023-01-19T02:38:34;10.43;;;7.20;;
52564;SDS011;38460;53.106;7.004;2023-01-19T02:41:02;9.43;;;6.57;;
52564;SDS011;38460;53.106;7.004;2023-01-19T02:43:30;10.27;;;7.22;;
52564;SDS011;38460;53.106;7.004;2023-01-19T02:45:57;11.80;;;7.65;;
52564;SDS011;38460;53.106;7.004;2023-01-19T02:48:23;10.10;;;8.40;;
52564;SDS011;38460;53.106;7.004;2023-01-19T02:50:53;12.43;;;8.10;;
52564;SDS011;38460;53.106;7.004;2023-01-19T02:58:46;9.20;;;8.02;;
52564;SDS011;38460;53.106;7.004;2023-01-19T03:04:23;10.90;;;8.65;;
52564;SDS011;38460;53.106;7.004;2023-01-19T03:07:08;10.77;;;8.27;;
52564;SDS011;38460;53.106;7.004;2023-01-19T03:09:48;11.70;;;8.73;;
52564;SDS011;38460;53.106;7.004;2023-01-19T03:14:56;14.35;;;10.30;;
52564;SDS011;38460;53.106;7.004;2023-01-19T03:17:25;12.27;;;9.85;;
52564;SDS011;38460;53.106;7.004;2023-01-19T03:19:55;14.98;;;10.05;;
52564;SDS011;38460;53.106;7.004;2023-01-19T03:22:25;13.65;;;9.98;;
52564;SDS011;38460;53.106;7.004;2023-01-19T03:24:54;12.30;;;11.05;;
52564;SDS011;38460;53.106;7.004;2023-01-19T03:27:33;15.13;;;10.88;;
52564;SDS011;38460;53.106;7.004;2023-01-19T03:30:06;13.95;;;10.60;;
52564;SDS011;38460;53.106;7.004;2023-01-19T03:32:39;15.82;;;11.90;;
52564;SDS011;38460;53.106;7.004;2023-01-19T03:35:15;16.50;;;10.90;;
52564;SDS011;38460;53.106;7.004;2023-01-19T03:37:44;16.17;;;11.55;;
52564;SDS011;38460;53.106;7.004;2023-01-19T03:40:14;16.77;;;11.35;;
52564;SDS011;38460;53.106;7.004;2023-01-19T03:42:41;14.80;;;12.15;;
52564;SDS011;38460;53.106;7.004;2023-01-19T03:45:08;20.05;;;13.15;;
52564;SDS011;38460;53.106;7.004;2023-01-19T03:47:37;16.23;;;12.18;;
52564;SDS011;38460;53.106;7.004;2023-01-19T03:50:04;18.17;;;12.98;;
52564;SDS011;38460;53.106;7.004;2023-01-19T03:52:35;16.35;;;13.13;;
52564;SDS011;38460;53.106;7.004;2023-01-19T03:55:02;16.73;;;13.10;;
52564;SDS011;38460;53.106;7.004;2023-01-19T03:57:29;19.05;;;12.98;;
52564;SDS011;38460;53.106;7.004;2023-01-19T03:59:55;16.85;;;11.80;;
52564;SDS011;38460;53.106;7.004;2023-01-19T04:02:22;15.60;;;11.32;;
52564;SDS011;38460;53.106;7.004;2023-01-19T04:04:48;14.93;;;10.98;;
52564;SDS011;38460;53.106;7.004;2023-01-19T04:07:14;15.05;;;11.30;;
52564;SDS011;38460;53.106;7.004;2023-01-19T04:09:40;15.82;;;11.55;;
52564;SDS011;38460;53.106;7.004;2023-01-19T04:12:06;14.73;;;10.88;;
52564;SDS011;38460;53.106;7.004;2023-01-19T04:14:32;13.20;;;10.77;;
52564;SDS011;38460;53.106;7.004;2023-01-19T04:16:58;13.07;;;9.98;;
52564;SDS011;38460;53.106;7.004;2023-01-19T04:19:23;14.98;;;11.18;;
52564;SDS011;38460;53.106;7.004;2023-01-19T04:21:49;15.10;;;11.65;;
52564;SDS011;38460;53.106;7.004;2023-01-19T04:24:16;14.63;;;11.10;;
52564;SDS011;38460;53.106;7.004;2023-01-19T04:26:42;11.85;;;10.35;;
52564;SDS011;38460;53.106;7.004;2023-01-19T04:29:08;15.05;;;10.82;;
52564;SDS011;38460;53.106;7.004;2023-01-19T04:31:34;13.85;;;10.70;;
52564;SDS011;38460;53.106;7.004;2023-01-19T04:34:00;15.90;;;11.75;;
52564;SDS011;38460;53.106;7.004;2023-01-19T04:36:27;13.70;;;10.98;;
52564;SDS011;38460;53.106;7.004;2023-01-19T04:38:53;12.55;;;9.65;;
52564;SDS011;38460;53.106;7.004;2023-01-19T04:41:18;14.05;;;10.43;;
52564;SDS011;38460;53.106;7.004;2023-01-19T04:43:44;12.80;;;10.05;;
52564;SDS011;38460;53.106;7.004;2023-01-19T04:46:12;12.90;;;9.75;;
52564;SDS011;38460;53.106;7.004;2023-01-19T04:48:38;10.85;;;8.85;;
52564;SDS011;38460;53.106;7.004;2023-01-19T04:51:04;10.73;;;9.27;;
52564;SDS011;38460;53.106;7.004;2023-01-19T04:53:30;14.02;;;9.52;;
52564;SDS011;38460;53.106;7.004;2023-01-19T04:55:56;13.55;;;9.38;;
52564;SDS011;38460;53.106;7.004;2023-01-19T04:58:23;12.68;;;8.93;;
52564;SDS011;38460;53.106;7.004;2023-01-19T05:00:49;11.07;;;7.60;;
52564;SDS011;38460;53.106;7.004;2023-01-19T05:03:16;9.38;;;7.43;;
52564;SDS011;38460;53.106;7.004;2023-01-19T05:05:43;12.05;;;7.82;;
52564;SDS011;38460;53.106;7.004;2023-01-19T05:08:09;9.65;;;7.03;;
52564;SDS011;38460;53.106;7.004;2023-01-19T05:10:35;10.30;;;7.30;;
52564;SDS011;38460;53.106;7.004;2023-01-19T05:13:01;9.82;;;7.55;;
52564;SDS011;38460;53.106;7.004;2023-01-19T05:15:27;9.20;;;6.97;;
52564;SDS011;38460;53.106;7.004;2023-01-19T05:17:53;11.05;;;6.90;;
52564;SDS011;38460;53.106;7.004;2023-01-19T05:20:21;9.27;;;7.30;;
52564;SDS011;38460;53.106;7.004;2023-01-19T05:22:48;9.43;;;7.25;;
52564;SDS011;38460;53.106;7.004;2023-01-19T05:25:15;8.95;;;6.45;;
52564;SDS011;38460;53.106;7.004;2023-01-19T05:27:40;8.63;;;6.07;;
52564;SDS011;38460;53.106;7.004;2023-01-19T05:30:07;10.20;;;6.38;;
52564;SDS011;38460;53.106;7.004;2023-01-19T05:32:33;10.77;;;6.78;;
52564;SDS011;38460;53.106;7.004;2023-01-19T05:34:59;9.38;;;6.13;;
52564;SDS011;38460;53.106;7.004;2023-01-19T05:37:25;8.52;;;6.05;;
52564;SDS011;38460;53.106;7.004;2023-01-19T05:39:50;10.90;;;5.55;;
52564;SDS011;38460;53.106;7.004;2023-01-19T05:42:16;8.40;;;6.30;;
52564;SDS011;38460;53.106;7.004;2023-01-19T05:44:42;7.70;;;6.15;;
52564;SDS011;38460;53.106;7.004;2023-01-19T05:47:08;7.47;;;5.82;;
52564;SDS011;38460;53.106;7.004;2023-01-19T05:49:33;7.95;;;6.03;;
52564;SDS011;38460;53.106;7.004;2023-01-19T05:52:00;8.40;;;5.57;;
52564;SDS011;38460;53.106;7.004;2023-01-19T05:54:25;6.93;;;5.00;;
52564;SDS011;38460;53.106;7.004;2023-01-19T05:56:51;9.13;;;5.35;;
52564;SDS011;38460;53.106;7.004;2023-01-19T05:59:17;6.70;;;4.88;;
52564;SDS011;38460;53.106;7.004;2023-01-19T06:01:48;7.38;;;4.68;;
52564;SDS011;38460;53.106;7.004;2023-01-19T06:04:18;7.22;;;5.00;;
52564;SDS011;38460;53.106;7.004;2023-01-19T06:06:48;6.30;;;4.93;;
52564;SDS011;38460;53.106;7.004;2023-01-19T06:09:14;7.80;;;4.80;;
52564;SDS011;38460;53.106;7.004;2023-01-19T06:11:41;9.00;;;4.80;;
52564;SDS011;38460;53.106;7.004;2023-01-19T06:14:10;8.18;;;5.28;;
52564;SDS011;38460;53.106;7.004;2023-01-19T06:16:36;8.65;;;4.75;;
52564;SDS011;38460;53.106;7.004;2023-01-19T06:19:02;7.93;;;4.90;;
52564;SDS011;38460;53.106;7.004;2023-01-19T06:21:28;11.85;;;5.97;;
52564;SDS011;38460;53.106;7.004;2023-01-19T06:23:54;11.13;;;5.80;;
52564;SDS011;38460;53.106;7.004;2023-01-19T06:26:19;11.23;;;5.40;;
52564;SDS011;38460;53.106;7.004;2023-01-19T06:28:45;10.63;;;5.95;;
52564;SDS011;38460;53.106;7.004;2023-01-19T06:31:12;11.95;;;5.93;;
52564;SDS011;38460;53.106;7.004;2023-01-19T06:33:38;12.60;;;5.75;;
52564;SDS011;38460;53.106;7.004;2023-01-19T06:36:04;13.10;;;5.30;;
52564;SDS011;38460;53.106;7.004;2023-01-19T06:38:30;12.82;;;5.40;;
52564;SDS011;38460;53.106;7.004;2023-01-19T06:40:56;11.68;;;4.95;;
52564;SDS011;38460;53.106;7.004;2023-01-19T06:43:23;13.85;;;6.15;;
52564;SDS011;38460;53.106;7.004;2023-01-19T06:45:50;11.82;;;4.47;;
52564;SDS011;38460;53.106;7.004;2023-01-19T06:48:16;12.25;;;5.65;;
52564;SDS011;38460;53.106;7.004;2023-01-19T06:50:45;10.85;;;5.15;;
52564;SDS011;38460;53.106;7.004;2023-01-19T06:53:12;5.78;;;3.05;;
52564;SDS011;38460;53.106;7.004;2023-01-19T06:55:40;5.65;;;2.40;;
52564;SDS011;38460;53.106;7.004;2023-01-19T06:58:07;4.13;;;2.00;;
52564;SDS011;38460;53.106;7.004;2023-01-19T07:00:33;4.85;;;2.08;;
52564;SDS011;38460;53.106;7.004;2023-01-19T07:02:59;6.15;;;1.50;;
52564;SDS011;38460;53.106;7.004;2023-01-19T07:05:24;3.00;;;1.10;;
52564;SDS011;38460;53.106;7.004;2023-01-19T07:07:51;4.15;;;1.35;;
52564;SDS011;38460;53.106;7.004;2023-01-19T07:10:17;3.30;;;1.10;;
52564;SDS011;38460;53.106;7.004;2023-01-19T07:12:43;2.88;;;1.27;;
52564;SDS011;38460;53.106;7.004;2023-01-19T07:15:11;2.40;;;1.02;;
52564;SDS011;38460;53.106;7.004;2023-01-19T07:17:37;3.80;;;0.93;;
52564;SDS011;38460;53.106;7.004;2023-01-19T07:20:03;6.43;;;1.30;;
52564;SDS011;38460;53.106;7.004;2023-01-19T07:22:29;3.30;;;0.90;;
52564;SDS011;38460;53.106;7.004;2023-01-19T07:24:55;3.30;;;1.33;;
52564;SDS011;38460;53.106;7.004;2023-01-19T07:27:23;6.88;;;2.17;;
52564;SDS011;38460;53.106;7.004;2023-01-19T07:29:52;3.33;;;1.40;;
52564;SDS011;38460;53.106;7.004;2023-01-19T07:32:17;5.20;;;1.20;;
52564;SDS011;38460;53.106;7.004;2023-01-19T07:34:43;4.53;;;1.38;;
52564;SDS011;38460;53.106;7.004;2023-01-19T07:37:09;4.13;;;1.75;;
52564;SDS011;38460;53.106;7.004;2023-01-19T07:39:35;5.10;;;1.55;;
52564;SDS011;38460;53.106;7.004;2023-01-19T07:42:00;4.30;;;1.67;;
52564;SDS011;38460;53.106;7.004;2023-01-19T07:44:26;2.70;;;1.02;;
52564;SDS011;38460;53.106;7.004;2023-01-19T07:46:52;4.13;;;1.15;;
52564;SDS011;38460;53.106;7.004;2023-01-19T07:49:17;4.65;;;1.48;;
52564;SDS011;38460;53.106;7.004;2023-01-19T07:51:44;4.25;;;1.20;;
52564;SDS011;38460;53.106;7.004;2023-01-19T07:54:10;2.38;;;1.15;;
52564;SDS011;38460;53.106;7.004;2023-01-19T07:56:36;3.28;;;1.50;;
52564;SDS011;38460;53.106;7.004;2023-01-19T07:59:02;2.80;;;1.30;;
52564;SDS011;38460;53.106;7.004;2023-01-19T08:01:28;4.63;;;1.50;;
52564;SDS011;38460;53.106;7.004;2023-01-19T08:03:53;7.13;;;1.33;;
52564;SDS011;38460;53.106;7.004;2023-01-19T08:06:20;4.95;;;1.48;;
52564;SDS011;38460;53.106;7.004;2023-01-19T08:08:48;7.85;;;2.17;;
52564;SDS011;38460;53.106;7.004;2023-01-19T08:11:14;8.07;;;1.63;;
52564;SDS011;38460;53.106;7.004;2023-01-19T08:13:40;4.35;;;1.48;;
52564;SDS011;38460;53.106;7.004;2023-01-19T08:16:07;5.95;;;1.90;;
52564;SDS011;38460;53.106;7.004;2023-01-19T08:18:33;4.10;;;1.80;;
52564;SDS011;38460;53.106;7.004;2023-01-19T08:20:59;6.85;;;2.25;;
52564;SDS011;38460;53.106;7.004;2023-01-19T08:23:25;7.72;;;2.45;;
52564;SDS011;38460;53.106;7.004;2023-01-19T08:25:52;11.70;;;3.40;;
52564;SDS011;38460;53.106;7.004;2023-01-19T08:28:18;7.55;;;3.78;;
52564;SDS011;38460;53.106;7.004;2023-01-19T08:30:44;16.00;;;5.72;;
52564;SDS011;38460;53.106;7.004;2023-01-19T08:33:11;17.85;;;8.05;;
52564;SDS011;38460;53.106;7.004;2023-01-19T08:35:41;15.10;;;7.13;;
52564;SDS011;38460;53.106;7.004;2023-01-19T08:38:13;9.32;;;4.10;;
52564;SDS011;38460;53.106;7.004;2023-01-19T08:40:39;10.35;;;3.25;;
52564;SDS011;38460;53.106;7.004;2023-01-19T08:43:10;7.50;;;2.30;;
52564;SDS011;38460;53.106;7.004;2023-01-19T08:45:38;12.00;;;2.42;;
52564;SDS011;38460;53.106;7.004;2023-01-19T08:48:05;6.18;;;2.58;;
52564;SDS011;38460;53.106;7.004;2023-01-19T08:50:31;9.88;;;2.35;;
52564;SDS011;38460;53.106;7.004;2023-01-19T08:52:58;6.93;;;1.98;;
52564;SDS011;38460;53.106;7.004;2023-01-19T08:55:26;11.45;;;2.15;;
52564;SDS011;38460;53.106;7.004;2023-01-19T08:57:52;7.65;;;2.42;;
52564;SDS011;38460;53.106;7.004;2023-01-19T09:00:21;7.95;;;1.95;;
52564;SDS011;38460;53.106;7.004;2023-01-19T09:02:47;9.10;;;2.30;;
52564;SDS011;38460;53.106;7.004;2023-01-19T09:05:13;7.38;;;2.10;;
52564;SDS011;38460;53.106;7.004;2023-01-19T09:07:39;6.50;;;1.90;;
52564;SDS011;38460;53.106;7.004;2023-01-19T09:10:05;10.95;;;2.10;;
52564;SDS011;38460;53.106;7.004;2023-01-19T09:12:32;8.30;;;2.10;;
52564;SDS011;38460;53.106;7.004;2023-01-19T09:14:57;5.72;;;1.75;;
52564;SDS011;38460;53.106;7.004;2023-01-19T09:17:23;7.53;;;1.70;;
52564;SDS011;38460;53.106;7.004;2023-01-19T09:19:49;6.60;;;2.03;;
52564;SDS011;38460;53.106;7.004;2023-01-19T09:22:15;9.15;;;2.13;;
52564;SDS011;38460;53.106;7.004;2023-01-19T09:24:40;6.93;;;2.08;;
52564;SDS011;38460;53.106;7.004;2023-01-19T09:27:06;11.13;;;4.05;;
52564;SDS011;38460;53.106;7.004;2023-01-19T09:29:32;13.05;;;7.13;;
52564;SDS011;38460;53.106;7.004;2023-01-19T09:31:58;13.35;;;7.13;;
52564;SDS011;38460;53.106;7.004;2023-01-19T09:34:23;8.02;;;3.00;;
52564;SDS011;38460;53.106;7.004;2023-01-19T09:36:52;9.88;;;2.40;;
52564;SDS011;38460;53.106;7.004;2023-01-19T09:39:18;7.40;;;3.20;;
52564;SDS011;38460;53.106;7.004;2023-01-19T09:41:53;10.13;;;2.55;;
52564;SDS011;38460;53.106;7.004;2023-01-19T09:44:33;9.68;;;3.28;;
52564;SDS011;38460;53.106;7.004;2023-01-19T09:47:03;8.27;;;2.10;;
52564;SDS011;38460;53.106;7.004;2023-01-19T09:49:39;8.50;;;2.40;;
52564;SDS011;38460;53.106;7.004;2023-01-19T09:52:09;12.10;;;2.42;;
52564;SDS011;38460;53.106;7.004;2023-01-19T09:57:10;18.83;;;3.65;;
52564;SDS011;38460;53.106;7.004;2023-01-19T09:59:36;15.05;;;5.18;;
52564;SDS011;38460;53.106;7.004;2023-01-19T10:02:05;11.85;;;4.18;;
52564;SDS011;38460;53.106;7.004;2023-01-19T10:09:44;15.02;;;4.90;;
52564;SDS011;38460;53.106;7.004;2023-01-19T10:13:09;15.07;;;3.45;;
52564;SDS011;38460;53.106;7.004;2023-01-19T10:18:22;10.45;;;2.70;;
52564;SDS011;38460;53.106;7.004;2023-01-19T10:21:03;11.45;;;4.75;;
52564;SDS011;38460;53.106;7.004;2023-01-19T10:23:46;13.52;;;5.72;;
52564;SDS011;38460;53.106;7.004;2023-01-19T10:26:23;15.23;;;5.40;;
52564;SDS011;38460;53.106;7.004;2023-01-19T10:29:22;10.18;;;2.67;;
52564;SDS011;38460;53.106;7.004;2023-01-19T10:31:39;6.88;;;2.03;;
52564;SDS011;38460;53.106;7.004;2023-01-19T10:34:12;8.85;;;2.33;;
52564;SDS011;38460;53.106;7.004;2023-01-19T10:36:44;8.43;;;1.95;;
52564;SDS011;38460;53.106;7.004;2023-01-19T10:39:13;10.00;;;2.83;;
52564;SDS011;38460;53.106;7.004;2023-01-19T10:41:50;9.68;;;2.25;;
52564;SDS011;38460;53.106;7.004;2023-01-19T10:44:24;11.52;;;4.25;;
52564;SDS011;38460;53.106;7.004;2023-01-19T10:46:51;13.43;;;4.40;;
52564;SDS011;38460;53.106;7.004;2023-01-19T10:49:28;6.35;;;2.88;;
52564;SDS011;38460;53.106;7.004;2023-01-19T10:52:00;7.90;;;2.10;;
52564;SDS011;38460;53.106;7.004;2023-01-19T10:54:27;13.50;;;3.03;;
52564;SDS011;38460;53.106;7.004;2023-01-19T10:57:00;9.95;;;2.55;;
52564;SDS011;38460;53.106;7.004;2023-01-19T10:59:32;7.97;;;2.13;;
52564;SDS011;38460;53.106;7.004;2023-01-19T11:04:37;10.52;;;3.33;;
52564;SDS011;38460;53.106;7.004;2023-01-19T11:12:55;11.95;;;2.17;;
52564;SDS011;38460;53.106;7.004;2023-01-19T11:18:07;9.77;;;2.95;;
52564;SDS011;38460;53.106;7.004;2023-01-19T11:21:06;9.25;;;2.13;;
52564;SDS011;38460;53.106;7.004;2023-01-19T11:23:34;9.02;;;2.92;;
52564;SDS011;38460;53.106;7.004;2023-01-19T11:26:08;7.47;;;2.08;;
52564;SDS011;38460;53.106;7.004;2023-01-19T11:28:45;5.38;;;1.90;;
52564;SDS011;38460;53.106;7.004;2023-01-19T11:33:42;8.13;;;1.98;;
52564;SDS011;38460;53.106;7.004;2023-01-19T11:36:19;5.10;;;2.10;;
52564;SDS011;38460;53.106;7.004;2023-01-19T11:38:48;7.28;;;2.30;;
52564;SDS011;38460;53.106;7.004;2023-01-19T11:43:42;5.35;;;1.80;;
52564;SDS011;38460;53.106;7.004;2023-01-19T11:46:10;8.43;;;2.35;;
52564;SDS011;38460;53.106;7.004;2023-01-19T11:48:53;9.00;;;2.53;;
52564;SDS011;38460;53.106;7.004;2023-01-19T11:51:41;5.28;;;1.80;;
52564;SDS011;38460;53.106;7.004;2023-01-19T11:54:18;8.55;;;1.85;;
52564;SDS011;38460;53.106;7.004;2023-01-19T11:56:48;11.90;;;2.53;;
52564;SDS011;38460;53.106;7.004;2023-01-19T11:59:16;8.07;;;1.67;;
52564;SDS011;38460;53.106;7.004;2023-01-19T12:01:45;4.78;;;1.52;;
52564;SDS011;38460;53.106;7.004;2023-01-19T12:04:16;6.47;;;1.50;;
52564;SDS011;38460;53.106;7.004;2023-01-19T12:06:52;7.07;;;2.00;;
52564;SDS011;38460;53.106;7.004;2023-01-19T12:09:24;9.20;;;3.17;;
52564;SDS011;38460;53.106;7.004;2023-01-19T12:12:36;5.78;;;1.80;;
52564;SDS011;38460;53.106;7.004;2023-01-19T12:14:49;5.05;;;1.65;;
52564;SDS011;38460;53.106;7.004;2023-01-19T12:17:46;8.63;;;2.35;;
52564;SDS011;38460;53.106;7.004;2023-01-19T12:26:55;7.55;;;2.13;;
52564;SDS011;38460;53.106;7.004;2023-01-19T12:29:25;7.40;;;2.53;;
52564;SDS011;38460;53.106;7.004;2023-01-19T12:34:39;4.32;;;2.30;;
52564;SDS011;38460;53.106;7.004;2023-01-19T12:42:45;6.53;;;2.25;;
52564;SDS011;38460;53.106;7.004;2023-01-19T12:45:19;4.40;;;1.60;;
52564;SDS011;38460;53.106;7.004;2023-01-19T12:47:50;6.45;;;1.98;;
52564;SDS011;38460;53.106;7.004;2023-01-19T12:50:17;5.90;;;1.40;;
52564;SDS011;38460;53.106;7.004;2023-01-19T12:52:55;5.43;;;1.23;;
52564;SDS011;38460;53.106;7.004;2023-01-19T12:55:26;4.13;;;1.20;;
52564;SDS011;38460;53.106;7.004;2023-01-19T12:58:07;8.50;;;2.08;;
52564;SDS011;38460;53.106;7.004;2023-01-19T13:00:42;6.38;;;1.60;;
52564;SDS011;38460;53.106;7.004;2023-01-19T13:05:51;4.95;;;1.67;;
52564;SDS011;38460;53.106;7.004;2023-01-19T13:08:30;4.40;;;1.38;;
52564;SDS011;38460;53.106;7.004;2023-01-19T13:11:17;5.38;;;1.92;;
52564;SDS011;38460;53.106;7.004;2023-01-19T13:23:58;5.07;;;1.17;;
52564;SDS011;38460;53.106;7.004;2023-01-19T13:34:09;4.85;;;1.25;;
52564;SDS011;38460;53.106;7.004;2023-01-19T13:42:00;3.67;;;1.23;;
52564;SDS011;38460;53.106;7.004;2023-01-19T13:44:43;5.82;;;1.30;;
52564;SDS011;38460;53.106;7.004;2023-01-19T13:50:19;5.03;;;1.27;;
52564;SDS011;38460;53.106;7.004;2023-01-19T13:52:50;3.05;;;1.27;;
52564;SDS011;38460;53.106;7.004;2023-01-19T13:55:19;3.75;;;1.08;;
52564;SDS011;38460;53.106;7.004;2023-01-19T13:57:46;4.47;;;1.15;;
52564;SDS011;38460;53.106;7.004;2023-01-19T14:02:54;4.25;;;1.40;;
52564;SDS011;38460;53.106;7.004;2023-01-19T14:05:36;4.40;;;1.70;;
52564;SDS011;38460;53.106;7.004;2023-01-19T14:15:45;5.57;;;1.63;;
52564;SDS011;38460;53.106;7.004;2023-01-19T14:20:40;3.83;;;1.00;;
52564;SDS011;38460;53.106;7.004;2023-01-19T14:23:44;5.95;;;1.55;;
52564;SDS011;38460;53.106;7.004;2023-01-19T14:31:44;8.10;;;1.98;;
52564;SDS011;38460;53.106;7.004;2023-01-19T14:35:30;7.15;;;1.60;;
52564;SDS011;38460;53.106;7.004;2023-01-19T14:37:31;6.88;;;1.42;;
52564;SDS011;38460;53.106;7.004;2023-01-19T14:40:03;7.15;;;1.55;;
52564;SDS011;38460;53.106;7.004;2023-01-19T14:42:44;4.13;;;1.63;;
52564;SDS011;38460;53.106;7.004;2023-01-19T14:45:21;5.82;;;1.50;;
52564;SDS011;38460;53.106;7.004;2023-01-19T14:50:39;7.50;;;1.60;;
52564;SDS011;38460;53.106;7.004;2023-01-19T14:53:16;9.48;;;2.13;;
52564;SDS011;38460;53.106;7.004;2023-01-19T14:55:50;4.70;;;1.77;;
52564;SDS011;38460;53.106;7.004;2023-01-19T14:58:20;6.93;;;1.38;;
52564;SDS011;38460;53.106;7.004;2023-01-19T15:00:48;3.70;;;1.92;;
52564;SDS011;38460;53.106;7.004;2023-01-19T15:03:15;6.72;;;1.52;;
52564;SDS011;38460;53.106;7.004;2023-01-19T15:05:44;11.70;;;2.92;;
52564;SDS011;38460;53.106;7.004;2023-01-19T15:08:13;7.60;;;2.63;;
52564;SDS011;38460;53.106;7.004;2023-01-19T15:10:49;5.53;;;2.05;;
52564;SDS011;38460;53.106;7.004;2023-01-19T15:13:16;7.38;;;6.20;;
52564;SDS011;38460;53.106;7.004;2023-01-19T15:15:44;7.95;;;2.58;;
52564;SDS011;38460;53.106;7.004;2023-01-19T15:18:14;5.80;;;2.60;;
52564;SDS011;38460;53.106;7.004;2023-01-19T15:20:53;6.03;;;1.80;;
52564;SDS011;38460;53.106;7.004;2023-01-19T15:23:19;5.05;;;1.88;;
52564;SDS011;38460;53.106;7.004;2023-01-19T15:25:45;6.53;;;1.75;;
52564;SDS011;38460;53.106;7.004;2023-01-19T15:28:15;5.15;;;1.45;;
52564;SDS011;38460;53.106;7.004;2023-01-19T15:30:42;3.85;;;1.52;;
52564;SDS011;38460;53.106;7.004;2023-01-19T15:33:15;6.13;;;2.05;;
52564;SDS011;38460;53.106;7.004;2023-01-19T15:35:47;9.57;;;2.47;;
52564;SDS011;38460;53.106;7.004;2023-01-19T15:38:12;5.53;;;3.03;;
52564;SDS011;38460;53.106;7.004;2023-01-19T15:40:38;5.55;;;2.38;;
52564;SDS011;38460;53.106;7.004;2023-01-19T15:43:04;6.13;;;2.10;;
52564;SDS011;38460;53.106;7.004;2023-01-19T15:47:56;22.67;;;11.73;;
52564;SDS011;38460;53.106;7.004;2023-01-19T15:50:22;30.88;;;17.25;;
52564;SDS011;38460;53.106;7.004;2023-01-19T15:52:49;11.50;;;6.55;;
52564;SDS011;38460;53.106;7.004;2023-01-19T15:55:15;8.65;;;4.50;;
52564;SDS011;38460;53.106;7.004;2023-01-19T15:57:40;6.22;;;3.30;;
52564;SDS011;38460;53.106;7.004;2023-01-19T16:00:07;8.18;;;3.67;;
52564;SDS011;38460;53.106;7.004;2023-01-19T16:02:34;12.32;;;5.38;;
52564;SDS011;38460;53.106;7.004;2023-01-19T16:05:00;25.20;;;11.40;;
52564;SDS011;38460;53.106;7.004;2023-01-19T16:07:26;11.15;;;5.25;;
52564;SDS011;38460;53.106;7.004;2023-01-19T16:09:52;8.48;;;2.95;;
52564;SDS011;38460;53.106;7.004;2023-01-19T16:12:18;8.15;;;3.08;;
52564;SDS011;38460;53.106;7.004;2023-01-19T16:14:43;6.00;;;2.58;;
52564;SDS011;38460;53.106;7.004;2023-01-19T16:17:09;4.00;;;1.67;;
52564;SDS011;38460;53.106;7.004;2023-01-19T16:19:35;9.43;;;2.28;;
52564;SDS011;38460;53.106;7.004;2023-01-19T16:22:01;5.47;;;2.17;;
52564;SDS011;38460;53.106;7.004;2023-01-19T16:24:27;7.15;;;2.45;;
52564;SDS011;38460;53.106;7.004;2023-01-19T16:26:53;6.75;;;2.28;;
52564;SDS011;38460;53.106;7.004;2023-01-19T16:29:19;6.88;;;2.40;;
52564;SDS011;38460;53.106;7.004;2023-01-19T16:31:45;6.45;;;1.95;;
52564;SDS011;38460;53.106;7.004;2023-01-19T16:34:11;8.02;;;3.05;;
52564;SDS011;38460;53.106;7.004;2023-01-19T16:36:37;7.40;;;3.13;;
52564;SDS011;38460;53.106;7.004;2023-01-19T16:39:09;7.82;;;3.13;;
52564;SDS011;38460;53.106;7.004;2023-01-19T16:41:37;6.65;;;3.30;;
52564;SDS011;38460;53.106;7.004;2023-01-19T16:44:03;13.35;;;6.38;;
52564;SDS011;38460;53.106;7.004;2023-01-19T16:46:34;10.38;;;4.70;;